sensor_id;sensor_type;location;lat;lon;timestamp;temperature;humidity
21849;DHT22;11089;49.852;19.700;2023-05-10T00:01:03;6.30;1.00
21849;DHT22;11089;49.852;19.700;2023-05-10T00:04:04;6.30;1.00
21849;DHT22;11089;49.852;19.700;2023-05-10T00:07:05;6.30;1.00
21849;DHT22;11089;49.852;19.700;2023-05-10T00:10:06;6.30;1.00
21849;DHT22;11089;49.852;19.700;2023-05-10T00:13:07;6.30;1.00
21849;DHT22;11089;49.852;19.700;2023-05-10T00:16:08;6.30;1.00
21849;DHT22;11089;49.852;19.700;2023-05-10T00:19:09;6.20;1.00
21849;DHT22;11089;49.852;19.700;2023-05-10T00:22:10;6.20;1.00
21849;DHT22;11089;49.852;19.700;2023-05-10T00:25:11;6.10;1.00
21849;DHT22;11089;49.852;19.700;2023-05-10T00:28:12;6.10;1.00
21849;DHT22;11089;49.852;19.700;2023-05-10T00:31:13;6.20;1.00
21849;DHT22;11089;49.852;19.700;2023-05-10T00:34:15;6.20;1.00
21849;DHT22;11089;49.852;19.700;2023-05-10T00:37:16;6.20;1.00
21849;DHT22;11089;49.852;19.700;2023-05-10T00:40:17;6.10;1.00
21849;DHT22;11089;49.852;19.700;2023-05-10T00:43:18;6.10;1.00
21849;DHT22;11089;49.852;19.700;2023-05-10T00:46:19;6.00;1.00
21849;DHT22;11089;49.852;19.700;2023-05-10T00:49:20;5.90;99.90
21849;DHT22;11089;49.852;19.700;2023-05-10T00:52:21;5.80;99.90
21849;DHT22;11089;49.852;19.700;2023-05-10T00:55:24;5.70;99.90
21849;DHT22;11089;49.852;19.700;2023-05-10T00:58:25;5.70;99.90
21849;DHT22;11089;49.852;19.700;2023-05-10T01:01:28;5.60;99.90
21849;DHT22;11089;49.852;19.700;2023-05-10T01:04:30;5.70;99.90
21849;DHT22;11089;49.852;19.700;2023-05-10T01:07:31;5.60;99.90
21849;DHT22;11089;49.852;19.700;2023-05-10T01:10:32;5.60;99.90
21849;DHT22;11089;49.852;19.700;2023-05-10T01:13:40;5.50;1.00
21849;DHT22;11089;49.852;19.700;2023-05-10T01:16:42;5.50;1.00
21849;DHT22;11089;49.852;19.700;2023-05-10T01:19:44;5.40;1.00
21849;DHT22;11089;49.852;19.700;2023-05-10T01:23:11;5.40;1.00
21849;DHT22;11089;49.852;19.700;2023-05-10T01:39:50;5.30;39.60
21849;DHT22;11089;49.852;19.700;2023-05-10T01:43:01;5.30;1.00
21849;DHT22;11089;49.852;19.700;2023-05-10T01:46:07;5.20;1.00
21849;DHT22;11089;49.852;19.700;2023-05-10T01:49:59;5.20;99.60
21849;DHT22;11089;49.852;19.700;2023-05-10T01:52:42;5.10;59.20
21849;DHT22;11089;49.852;19.700;2023-05-10T01:55:48;4.90;99.90
21849;DHT22;11089;49.852;19.700;2023-05-10T01:58:50;4.90;1.00
21849;DHT22;11089;49.852;19.700;2023-05-10T02:01:53;4.90;1.00
21849;DHT22;11089;49.852;19.700;2023-05-10T02:04:55;5.00;99.90
21849;DHT22;11089;49.852;19.700;2023-05-10T02:07:58;5.00;99.90
21849;DHT22;11089;49.852;19.700;2023-05-10T02:11:02;5.00;99.90
21849;DHT22;11089;49.852;19.700;2023-05-10T02:14:07;5.00;1.00
21849;DHT22;11089;49.852;19.700;2023-05-10T02:17:09;4.80;99.90
21849;DHT22;11089;49.852;19.700;2023-05-10T02:20:10;4.70;1.00
21849;DHT22;11089;49.852;19.700;2023-05-10T02:23:13;4.70;12.70
21849;DHT22;11089;49.852;19.700;2023-05-10T02:26:15;4.60;1.00
21849;DHT22;11089;49.852;19.700;2023-05-10T02:29:18;4.60;79.00
21849;DHT22;11089;49.852;19.700;2023-05-10T02:32:21;4.70;99.90
21849;DHT22;11089;49.852;19.700;2023-05-10T02:35:22;4.70;1.00
21849;DHT22;11089;49.852;19.700;2023-05-10T02:38:25;4.50;1.00
21849;DHT22;11089;49.852;19.700;2023-05-10T02:41:28;4.50;99.90
21849;DHT22;11089;49.852;19.700;2023-05-10T02:44:32;4.50;1.00
21849;DHT22;11089;49.852;19.700;2023-05-10T02:47:34;4.60;99.90
21849;DHT22;11089;49.852;19.700;2023-05-10T02:50:36;4.40;99.90
21849;DHT22;11089;49.852;19.700;2023-05-10T02:53:40;4.40;1.00
21849;DHT22;11089;49.852;19.700;2023-05-10T02:56:47;4.40;1.00
21849;DHT22;11089;49.852;19.700;2023-05-10T02:59:50;4.40;1.00
21849;DHT22;11089;49.852;19.700;2023-05-10T03:02:52;4.40;1.00
21849;DHT22;11089;49.852;19.700;2023-05-10T03:05:53;4.40;1.00
21849;DHT22;11089;49.852;19.700;2023-05-10T03:08:56;4.20;1.00
21849;DHT22;11089;49.852;19.700;2023-05-10T03:18:21;4.10;99.90
21849;DHT22;11089;49.852;19.700;2023-05-10T03:21:25;4.10;1.00
21849;DHT22;11089;49.852;19.700;2023-05-10T03:24:30;4.10;1.00
21849;DHT22;11089;49.852;19.700;2023-05-10T03:27:32;4.10;99.90
21849;DHT22;11089;49.852;19.700;2023-05-10T03:30:35;4.20;1.00
21849;DHT22;11089;49.852;19.700;2023-05-10T03:33:48;4.10;1.00
21849;DHT22;11089;49.852;19.700;2023-05-10T03:36:49;4.00;1.00
21849;DHT22;11089;49.852;19.700;2023-05-10T03:39:50;4.00;1.00
21849;DHT22;11089;49.852;19.700;2023-05-10T03:42:51;3.80;1.00
21849;DHT22;11089;49.852;19.700;2023-05-10T03:45:52;3.90;99.90
21849;DHT22;11089;49.852;19.700;2023-05-10T03:48:53;4.00;1.00
21849;DHT22;11089;49.852;19.700;2023-05-10T03:51:54;4.00;1.00
21849;DHT22;11089;49.852;19.700;2023-05-10T03:54:55;4.00;99.90
21849;DHT22;11089;49.852;19.700;2023-05-10T03:57:56;4.00;99.90
21849;DHT22;11089;49.852;19.700;2023-05-10T04:00:57;4.10;83.80
21849;DHT22;11089;49.852;19.700;2023-05-10T04:03:58;4.10;1.00
21849;DHT22;11089;49.852;19.700;2023-05-10T04:06:59;4.20;99.90
21849;DHT22;11089;49.852;19.700;2023-05-10T04:10:00;4.20;99.90
21849;DHT22;11089;49.852;19.700;2023-05-10T04:13:01;4.30;99.90
21849;DHT22;11089;49.852;19.700;2023-05-10T04:16:02;4.30;99.90
21849;DHT22;11089;49.852;19.700;2023-05-10T04:19:03;4.30;99.90
21849;DHT22;11089;49.852;19.700;2023-05-10T04:22:05;4.40;1.00
21849;DHT22;11089;49.852;19.700;2023-05-10T04:25:06;4.60;99.90
21849;DHT22;11089;49.852;19.700;2023-05-10T04:28:07;4.60;99.90
21849;DHT22;11089;49.852;19.700;2023-05-10T04:31:09;4.80;1.00
21849;DHT22;11089;49.852;19.700;2023-05-10T04:34:10;4.90;92.40
21849;DHT22;11089;49.852;19.700;2023-05-10T04:37:11;4.80;1.00
21849;DHT22;11089;49.852;19.700;2023-05-10T04:40:12;4.90;1.00
21849;DHT22;11089;49.852;19.700;2023-05-10T04:43:13;5.00;1.00
21849;DHT22;11089;49.852;19.700;2023-05-10T04:46:14;5.10;99.90
21849;DHT22;11089;49.852;19.700;2023-05-10T04:49:15;5.20;57.00
21849;DHT22;11089;49.852;19.700;2023-05-10T04:52:16;5.30;92.70
21849;DHT22;11089;49.852;19.700;2023-05-10T04:55:18;5.30;99.90
21849;DHT22;11089;49.852;19.700;2023-05-10T04:58:19;5.40;1.00
21849;DHT22;11089;49.852;19.700;2023-05-10T05:01:20;5.50;1.00
21849;DHT22;11089;49.852;19.700;2023-05-10T05:04:21;5.60;99.90
21849;DHT22;11089;49.852;19.700;2023-05-10T05:07:23;5.70;1.00
21849;DHT22;11089;49.852;19.700;2023-05-10T05:10:24;5.80;99.90
21849;DHT22;11089;49.852;19.700;2023-05-10T05:13:25;5.80;1.00
21849;DHT22;11089;49.852;19.700;2023-05-10T05:16:26;5.90;1.00
21849;DHT22;11089;49.852;19.700;2023-05-10T05:19:27;6.00;1.00
21849;DHT22;11089;49.852;19.700;2023-05-10T05:22:28;6.00;1.00
21849;DHT22;11089;49.852;19.700;2023-05-10T05:25:29;6.10;1.00
21849;DHT22;11089;49.852;19.700;2023-05-10T05:28:30;6.20;12.60
21849;DHT22;11089;49.852;19.700;2023-05-10T05:31:35;6.20;1.00
21849;DHT22;11089;49.852;19.700;2023-05-10T05:34:36;6.30;1.00
21849;DHT22;11089;49.852;19.700;2023-05-10T05:37:37;6.40;99.90
21849;DHT22;11089;49.852;19.700;2023-05-10T05:40:38;6.50;1.00
21849;DHT22;11089;49.852;19.700;2023-05-10T05:43:38;6.60;99.90
21849;DHT22;11089;49.852;19.700;2023-05-10T05:46:39;6.70;1.00
21849;DHT22;11089;49.852;19.700;2023-05-10T05:49:40;6.70;1.00
21849;DHT22;11089;49.852;19.700;2023-05-10T05:52:41;6.90;99.90
21849;DHT22;11089;49.852;19.700;2023-05-10T05:56:03;7.00;1.00
21849;DHT22;11089;49.852;19.700;2023-05-10T05:59:04;7.10;54.00
21849;DHT22;11089;49.852;19.700;2023-05-10T06:02:05;7.30;99.90
21849;DHT22;11089;49.852;19.700;2023-05-10T06:05:06;7.50;99.90
21849;DHT22;11089;49.852;19.700;2023-05-10T06:08:08;7.60;1.00
21849;DHT22;11089;49.852;19.700;2023-05-10T06:11:09;7.90;1.00
21849;DHT22;11089;49.852;19.700;2023-05-10T06:14:10;8.00;99.90
21849;DHT22;11089;49.852;19.700;2023-05-10T06:17:11;8.20;99.90
21849;DHT22;11089;49.852;19.700;2023-05-10T06:20:12;8.40;92.60
21849;DHT22;11089;49.852;19.700;2023-05-10T06:23:13;8.70;99.90
21849;DHT22;11089;49.852;19.700;2023-05-10T06:26:14;8.90;9.00
21849;DHT22;11089;49.852;19.700;2023-05-10T06:29:15;9.10;1.00
21849;DHT22;11089;49.852;19.700;2023-05-10T06:32:16;9.20;99.90
21849;DHT22;11089;49.852;19.700;2023-05-10T06:35:17;9.50;99.90
21849;DHT22;11089;49.852;19.700;2023-05-10T06:38:19;9.70;1.00
21849;DHT22;11089;49.852;19.700;2023-05-10T06:41:20;9.90;1.00
21849;DHT22;11089;49.852;19.700;2023-05-10T06:44:21;10.10;99.90
21849;DHT22;11089;49.852;19.700;2023-05-10T06:47:22;10.30;99.90
21849;DHT22;11089;49.852;19.700;2023-05-10T06:50:23;10.50;1.00
21849;DHT22;11089;49.852;19.700;2023-05-10T06:53:24;10.60;1.00
21849;DHT22;11089;49.852;19.700;2023-05-10T06:56:25;11.00;99.90
21849;DHT22;11089;49.852;19.700;2023-05-10T06:59:26;11.20;1.00
21849;DHT22;11089;49.852;19.700;2023-05-10T07:02:27;11.30;1.00
21849;DHT22;11089;49.852;19.700;2023-05-10T07:05:28;11.20;19.40
21849;DHT22;11089;49.852;19.700;2023-05-10T07:08:33;11.20;18.70
21849;DHT22;11089;49.852;19.700;2023-05-10T07:11:34;11.50;1.00
21849;DHT22;11089;49.852;19.700;2023-05-10T07:14:35;11.60;1.00
21849;DHT22;11089;49.852;19.700;2023-05-10T07:17:36;11.70;1.00
21849;DHT22;11089;49.852;19.700;2023-05-10T07:20:37;11.80;1.00
21849;DHT22;11089;49.852;19.700;2023-05-10T07:23:37;12.00;1.00
21849;DHT22;11089;49.852;19.700;2023-05-10T07:26:38;12.30;99.90
21849;DHT22;11089;49.852;19.700;2023-05-10T07:29:39;12.00;99.90
21849;DHT22;11089;49.852;19.700;2023-05-10T07:32:40;12.50;43.60
21849;DHT22;11089;49.852;19.700;2023-05-10T07:35:42;12.90;1.00
21849;DHT22;11089;49.852;19.700;2023-05-10T07:38:43;13.20;1.00
21849;DHT22;11089;49.852;19.700;2023-05-10T07:41:44;13.30;1.00
21849;DHT22;11089;49.852;19.700;2023-05-10T07:44:45;13.70;1.00
21849;DHT22;11089;49.852;19.700;2023-05-10T07:47:46;14.00;1.00
21849;DHT22;11089;49.852;19.700;2023-05-10T07:50:47;14.20;1.00
21849;DHT22;11089;49.852;19.700;2023-05-10T07:53:48;14.10;1.00
21849;DHT22;11089;49.852;19.700;2023-05-10T07:56:49;14.20;1.00
21849;DHT22;11089;49.852;19.700;2023-05-10T07:59:50;14.20;1.00
21849;DHT22;11089;49.852;19.700;2023-05-10T08:02:50;14.70;1.00
21849;DHT22;11089;49.852;19.700;2023-05-10T08:05:51;14.90;1.00
21849;DHT22;11089;49.852;19.700;2023-05-10T08:08:52;15.00;1.00
21849;DHT22;11089;49.852;19.700;2023-05-10T08:11:54;15.00;1.00
21849;DHT22;11089;49.852;19.700;2023-05-10T08:14:55;15.10;1.00
21849;DHT22;11089;49.852;19.700;2023-05-10T08:17:56;15.60;1.00
21849;DHT22;11089;49.852;19.700;2023-05-10T08:20:57;15.90;1.00
21849;DHT22;11089;49.852;19.700;2023-05-10T08:23:58;16.10;1.00
21849;DHT22;11089;49.852;19.700;2023-05-10T08:26:59;16.10;1.00
21849;DHT22;11089;49.852;19.700;2023-05-10T08:29:59;16.20;1.00
21849;DHT22;11089;49.852;19.700;2023-05-10T08:33:01;16.30;1.00
21849;DHT22;11089;49.852;19.700;2023-05-10T08:36:01;16.40;1.00
21849;DHT22;11089;49.852;19.700;2023-05-10T08:39:03;16.70;1.00
21849;DHT22;11089;49.852;19.700;2023-05-10T08:42:04;16.90;1.00
21849;DHT22;11089;49.852;19.700;2023-05-10T08:45:07;16.90;1.00
21849;DHT22;11089;49.852;19.700;2023-05-10T08:48:09;16.90;1.00
21849;DHT22;11089;49.852;19.700;2023-05-10T08:51:22;17.30;1.00
21849;DHT22;11089;49.852;19.700;2023-05-10T08:54:23;17.20;1.00
21849;DHT22;11089;49.852;19.700;2023-05-10T08:57:25;17.30;1.00
21849;DHT22;11089;49.852;19.700;2023-05-10T09:00:27;17.90;1.00
21849;DHT22;11089;49.852;19.700;2023-05-10T09:03:29;17.40;1.00
21849;DHT22;11089;49.852;19.700;2023-05-10T09:06:30;17.60;1.00
21849;DHT22;11089;49.852;19.700;2023-05-10T09:09:33;17.90;1.00
21849;DHT22;11089;49.852;19.700;2023-05-10T09:12:35;18.40;1.00
21849;DHT22;11089;49.852;19.700;2023-05-10T09:15:37;18.40;1.00
21849;DHT22;11089;49.852;19.700;2023-05-10T09:18:38;18.70;1.00
21849;DHT22;11089;49.852;19.700;2023-05-10T09:21:39;18.70;1.00
21849;DHT22;11089;49.852;19.700;2023-05-10T09:24:40;18.50;99.90
21849;DHT22;11089;49.852;19.700;2023-05-10T09:27:47;19.00;99.90
21849;DHT22;11089;49.852;19.700;2023-05-10T09:30:53;18.50;99.90
21849;DHT22;11089;49.852;19.700;2023-05-10T09:33:54;18.90;99.90
21849;DHT22;11089;49.852;19.700;2023-05-10T09:36:59;19.10;99.90
21849;DHT22;11089;49.852;19.700;2023-05-10T09:40:07;19.20;99.90
21849;DHT22;11089;49.852;19.700;2023-05-10T09:43:09;19.40;99.90
21849;DHT22;11089;49.852;19.700;2023-05-10T09:46:11;19.00;99.90
21849;DHT22;11089;49.852;19.700;2023-05-10T09:49:14;19.00;99.90
21849;DHT22;11089;49.852;19.700;2023-05-10T09:52:15;19.00;99.90
21849;DHT22;11089;49.852;19.700;2023-05-10T09:55:16;18.50;99.90
21849;DHT22;11089;49.852;19.700;2023-05-10T09:58:17;18.30;99.90
21849;DHT22;11089;49.852;19.700;2023-05-10T10:01:18;18.50;99.90
21849;DHT22;11089;49.852;19.700;2023-05-10T10:04:20;19.40;99.90
21849;DHT22;11089;49.852;19.700;2023-05-10T10:07:25;20.20;99.90
21849;DHT22;11089;49.852;19.700;2023-05-10T10:10:27;20.30;99.90
21849;DHT22;11089;49.852;19.700;2023-05-10T10:13:29;19.30;99.90
21849;DHT22;11089;49.852;19.700;2023-05-10T10:16:31;18.90;99.90
21849;DHT22;11089;49.852;19.700;2023-05-10T10:19:35;19.10;99.90
21849;DHT22;11089;49.852;19.700;2023-05-10T10:22:37;18.70;99.90
21849;DHT22;11089;49.852;19.700;2023-05-10T10:25:38;19.00;99.90
21849;DHT22;11089;49.852;19.700;2023-05-10T10:32:33;19.90;99.90
21849;DHT22;11089;49.852;19.700;2023-05-10T10:35:36;20.50;99.90
21849;DHT22;11089;49.852;19.700;2023-05-10T10:38:55;20.10;99.90
21849;DHT22;11089;49.852;19.700;2023-05-10T10:41:59;20.50;99.90
21849;DHT22;11089;49.852;19.700;2023-05-10T10:45:14;21.00;99.90
21849;DHT22;11089;49.852;19.700;2023-05-10T10:48:22;21.00;99.90
21849;DHT22;11089;49.852;19.700;2023-05-10T10:51:23;20.90;99.90
21849;DHT22;11089;49.852;19.700;2023-05-10T10:54:28;21.20;99.90
21849;DHT22;11089;49.852;19.700;2023-05-10T10:57:32;21.70;99.90
21849;DHT22;11089;49.852;19.700;2023-05-10T11:00:37;21.80;99.90
21849;DHT22;11089;49.852;19.700;2023-05-10T11:03:41;21.40;99.90
21849;DHT22;11089;49.852;19.700;2023-05-10T11:07:18;21.50;99.90
21849;DHT22;11089;49.852;19.700;2023-05-10T11:10:21;22.00;99.90
21849;DHT22;11089;49.852;19.700;2023-05-10T11:13:43;22.70;99.90
21849;DHT22;11089;49.852;19.700;2023-05-10T11:16:44;22.90;99.90
21849;DHT22;11089;49.852;19.700;2023-05-10T11:23:13;22.90;99.90
21849;DHT22;11089;49.852;19.700;2023-05-10T11:26:16;22.40;99.90
21849;DHT22;11089;49.852;19.700;2023-05-10T11:29:18;23.10;99.90
21849;DHT22;11089;49.852;19.700;2023-05-10T11:32:19;22.40;99.90
21849;DHT22;11089;49.852;19.700;2023-05-10T11:35:20;22.80;99.90
21849;DHT22;11089;49.852;19.700;2023-05-10T11:38:21;23.30;99.90
21849;DHT22;11089;49.852;19.700;2023-05-10T11:41:23;22.60;99.90
21849;DHT22;11089;49.852;19.700;2023-05-10T11:44:33;22.80;99.90
21849;DHT22;11089;49.852;19.700;2023-05-10T11:47:34;23.20;99.90
21849;DHT22;11089;49.852;19.700;2023-05-10T11:50:37;23.30;99.90
21849;DHT22;11089;49.852;19.700;2023-05-10T11:53:38;23.00;99.90
21849;DHT22;11089;49.852;19.700;2023-05-10T11:56:40;22.70;99.90
21849;DHT22;11089;49.852;19.700;2023-05-10T11:59:41;22.40;99.90
21849;DHT22;11089;49.852;19.700;2023-05-10T12:02:42;22.70;99.90
21849;DHT22;11089;49.852;19.700;2023-05-10T12:05:43;23.10;99.90
21849;DHT22;11089;49.852;19.700;2023-05-10T12:08:45;22.60;99.90
21849;DHT22;11089;49.852;19.700;2023-05-10T12:11:47;22.60;99.90
21849;DHT22;11089;49.852;19.700;2023-05-10T12:14:51;23.00;99.90
21849;DHT22;11089;49.852;19.700;2023-05-10T12:17:51;23.30;99.90
21849;DHT22;11089;49.852;19.700;2023-05-10T12:20:53;23.50;99.90
21849;DHT22;11089;49.852;19.700;2023-05-10T12:24:01;22.60;99.90
21849;DHT22;11089;49.852;19.700;2023-05-10T12:27:07;22.40;99.90
21849;DHT22;11089;49.852;19.700;2023-05-10T12:30:08;22.70;99.90
21849;DHT22;11089;49.852;19.700;2023-05-10T12:33:13;22.70;99.90
21849;DHT22;11089;49.852;19.700;2023-05-10T12:36:23;22.70;99.90
21849;DHT22;11089;49.852;19.700;2023-05-10T12:39:24;23.40;99.90
21849;DHT22;11089;49.852;19.700;2023-05-10T12:42:25;23.70;99.90
21849;DHT22;11089;49.852;19.700;2023-05-10T12:45:26;23.60;99.90
21849;DHT22;11089;49.852;19.700;2023-05-10T12:48:27;23.40;99.90
21849;DHT22;11089;49.852;19.700;2023-05-10T12:51:29;23.70;99.90
21849;DHT22;11089;49.852;19.700;2023-05-10T12:54:31;22.80;99.90
21849;DHT22;11089;49.852;19.700;2023-05-10T12:57:32;22.70;99.90
21849;DHT22;11089;49.852;19.700;2023-05-10T13:00:32;23.40;99.90
21849;DHT22;11089;49.852;19.700;2023-05-10T13:03:33;23.80;99.90
21849;DHT22;11089;49.852;19.700;2023-05-10T13:06:34;24.10;99.90
21849;DHT22;11089;49.852;19.700;2023-05-10T13:09:35;23.70;99.90
21849;DHT22;11089;49.852;19.700;2023-05-10T13:12:36;22.90;99.90
21849;DHT22;11089;49.852;19.700;2023-05-10T13:15:37;22.60;99.90
21849;DHT22;11089;49.852;19.700;2023-05-10T13:18:38;22.10;99.90
21849;DHT22;11089;49.852;19.700;2023-05-10T13:21:39;21.50;99.90
21849;DHT22;11089;49.852;19.700;2023-05-10T13:24:41;21.70;99.90
21849;DHT22;11089;49.852;19.700;2023-05-10T13:27:42;21.70;99.90
21849;DHT22;11089;49.852;19.700;2023-05-10T13:30:43;22.20;99.90
21849;DHT22;11089;49.852;19.700;2023-05-10T13:33:44;22.40;99.90
21849;DHT22;11089;49.852;19.700;2023-05-10T13:36:45;22.20;99.90
21849;DHT22;11089;49.852;19.700;2023-05-10T13:39:45;21.80;99.90
21849;DHT22;11089;49.852;19.700;2023-05-10T13:42:46;21.60;99.90
21849;DHT22;11089;49.852;19.700;2023-05-10T13:45:47;21.80;99.90
21849;DHT22;11089;49.852;19.700;2023-05-10T13:48:48;21.70;99.90
21849;DHT22;11089;49.852;19.700;2023-05-10T13:51:49;21.90;99.90
21849;DHT22;11089;49.852;19.700;2023-05-10T13:54:49;21.80;99.90
21849;DHT22;11089;49.852;19.700;2023-05-10T13:57:52;21.60;99.90
21849;DHT22;11089;49.852;19.700;2023-05-10T14:00:53;21.50;99.90
21849;DHT22;11089;49.852;19.700;2023-05-10T14:03:54;21.10;99.90
21849;DHT22;11089;49.852;19.700;2023-05-10T14:06:55;20.90;99.90
21849;DHT22;11089;49.852;19.700;2023-05-10T14:09:56;20.60;99.90
21849;DHT22;11089;49.852;19.700;2023-05-10T14:12:57;20.70;99.90
21849;DHT22;11089;49.852;19.700;2023-05-10T14:15:58;20.70;99.90
21849;DHT22;11089;49.852;19.700;2023-05-10T14:19:01;20.60;99.90
21849;DHT22;11089;49.852;19.700;2023-05-10T14:22:02;20.70;99.90
21849;DHT22;11089;49.852;19.700;2023-05-10T14:25:03;20.70;99.90
21849;DHT22;11089;49.852;19.700;2023-05-10T14:28:04;20.40;99.90
21849;DHT22;11089;49.852;19.700;2023-05-10T14:31:05;20.50;99.90
21849;DHT22;11089;49.852;19.700;2023-05-10T14:34:06;20.60;99.90
21849;DHT22;11089;49.852;19.700;2023-05-10T14:37:10;20.40;99.90
21849;DHT22;11089;49.852;19.700;2023-05-10T14:40:12;20.40;99.90
21849;DHT22;11089;49.852;19.700;2023-05-10T14:43:13;20.50;99.90
21849;DHT22;11089;49.852;19.700;2023-05-10T14:46:14;20.40;99.90
21849;DHT22;11089;49.852;19.700;2023-05-10T14:49:15;20.40;99.90
21849;DHT22;11089;49.852;19.700;2023-05-10T14:52:15;20.40;99.90
21849;DHT22;11089;49.852;19.700;2023-05-10T14:55:17;20.10;99.90
21849;DHT22;11089;49.852;19.700;2023-05-10T14:58:18;20.20;99.90
21849;DHT22;11089;49.852;19.700;2023-05-10T15:01:19;20.10;99.90
21849;DHT22;11089;49.852;19.700;2023-05-10T15:04:20;20.00;99.90
21849;DHT22;11089;49.852;19.700;2023-05-10T15:07:22;19.80;99.90
21849;DHT22;11089;49.852;19.700;2023-05-10T15:10:22;20.00;99.90
21849;DHT22;11089;49.852;19.700;2023-05-10T15:13:23;20.00;99.90
21849;DHT22;11089;49.852;19.700;2023-05-10T15:16:24;20.10;99.90
21849;DHT22;11089;49.852;19.700;2023-05-10T15:19:25;20.00;99.90
21849;DHT22;11089;49.852;19.700;2023-05-10T15:22:26;20.20;99.90
21849;DHT22;11089;49.852;19.700;2023-05-10T15:25:28;20.10;99.90
21849;DHT22;11089;49.852;19.700;2023-05-10T15:28:29;20.00;99.90
21849;DHT22;11089;49.852;19.700;2023-05-10T15:31:30;19.70;99.90
21849;DHT22;11089;49.852;19.700;2023-05-10T15:34:31;19.60;99.90
21849;DHT22;11089;49.852;19.700;2023-05-10T15:37:32;19.10;99.90
21849;DHT22;11089;49.852;19.700;2023-05-10T15:40:33;19.10;99.90
21849;DHT22;11089;49.852;19.700;2023-05-10T15:43:34;19.10;99.90
21849;DHT22;11089;49.852;19.700;2023-05-10T15:46:35;19.20;99.90
21849;DHT22;11089;49.852;19.700;2023-05-10T15:49:38;19.10;99.90
21849;DHT22;11089;49.852;19.700;2023-05-10T15:52:39;19.00;99.90
21849;DHT22;11089;49.852;19.700;2023-05-10T15:55:40;19.00;99.90
21849;DHT22;11089;49.852;19.700;2023-05-10T15:58:41;19.00;99.90
21849;DHT22;11089;49.852;19.700;2023-05-10T16:01:43;18.80;99.90
21849;DHT22;11089;49.852;19.700;2023-05-10T16:04:44;18.60;99.90
21849;DHT22;11089;49.852;19.700;2023-05-10T16:07:45;18.50;99.90
21849;DHT22;11089;49.852;19.700;2023-05-10T16:10:47;18.50;99.90
21849;DHT22;11089;49.852;19.700;2023-05-10T16:13:48;18.50;99.90
21849;DHT22;11089;49.852;19.700;2023-05-10T16:16:49;18.40;99.90
21849;DHT22;11089;49.852;19.700;2023-05-10T16:19:50;18.20;99.90
21849;DHT22;11089;49.852;19.700;2023-05-10T16:22:51;18.20;99.90
21849;DHT22;11089;49.852;19.700;2023-05-10T16:25:53;18.10;99.90
21849;DHT22;11089;49.852;19.700;2023-05-10T16:28:54;18.10;99.90
21849;DHT22;11089;49.852;19.700;2023-05-10T16:31:55;18.10;99.90
21849;DHT22;11089;49.852;19.700;2023-05-10T16:34:56;18.10;99.90
21849;DHT22;11089;49.852;19.700;2023-05-10T16:37:56;18.00;99.90
21849;DHT22;11089;49.852;19.700;2023-05-10T16:40:58;18.00;99.90
21849;DHT22;11089;49.852;19.700;2023-05-10T16:44:01;18.00;99.90
21849;DHT22;11089;49.852;19.700;2023-05-10T16:47:03;18.00;99.90
21849;DHT22;11089;49.852;19.700;2023-05-10T16:50:05;18.00;99.90
21849;DHT22;11089;49.852;19.700;2023-05-10T16:53:07;17.90;99.90
21849;DHT22;11089;49.852;19.700;2023-05-10T16:56:08;17.80;99.90
21849;DHT22;11089;49.852;19.700;2023-05-10T16:59:09;17.70;99.90
21849;DHT22;11089;49.852;19.700;2023-05-10T17:02:10;17.80;99.90
21849;DHT22;11089;49.852;19.700;2023-05-10T17:05:11;17.80;99.90
21849;DHT22;11089;49.852;19.700;2023-05-10T17:08:12;17.70;99.90
21849;DHT22;11089;49.852;19.700;2023-05-10T17:11:13;17.60;99.90
21849;DHT22;11089;49.852;19.700;2023-05-10T17:14:14;17.60;99.90
21849;DHT22;11089;49.852;19.700;2023-05-10T17:17:15;17.40;99.90
21849;DHT22;11089;49.852;19.700;2023-05-10T17:20:16;17.40;99.90
21849;DHT22;11089;49.852;19.700;2023-05-10T17:23:17;17.40;99.90
21849;DHT22;11089;49.852;19.700;2023-05-10T17:26:18;17.20;99.90
21849;DHT22;11089;49.852;19.700;2023-05-10T17:29:19;17.20;99.90
21849;DHT22;11089;49.852;19.700;2023-05-10T17:32:20;17.20;99.90
21849;DHT22;11089;49.852;19.700;2023-05-10T17:35:20;17.20;99.90
21849;DHT22;11089;49.852;19.700;2023-05-10T17:38:21;17.20;99.90
21849;DHT22;11089;49.852;19.700;2023-05-10T17:41:22;17.10;99.90
21849;DHT22;11089;49.852;19.700;2023-05-10T17:44:24;17.10;99.90
21849;DHT22;11089;49.852;19.700;2023-05-10T17:47:25;17.10;99.90
21849;DHT22;11089;49.852;19.700;2023-05-10T17:50:27;17.00;99.90
21849;DHT22;11089;49.852;19.700;2023-05-10T17:53:28;17.00;99.90
21849;DHT22;11089;49.852;19.700;2023-05-10T17:56:29;16.90;99.90
21849;DHT22;11089;49.852;19.700;2023-05-10T17:59:30;16.70;99.90
21849;DHT22;11089;49.852;19.700;2023-05-10T18:02:31;16.60;99.90
21849;DHT22;11089;49.852;19.700;2023-05-10T18:05:36;16.70;99.90
21849;DHT22;11089;49.852;19.700;2023-05-10T18:08:37;16.60;99.90
21849;DHT22;11089;49.852;19.700;2023-05-10T18:11:38;16.50;99.90
21849;DHT22;11089;49.852;19.700;2023-05-10T18:14:39;16.40;99.90
21849;DHT22;11089;49.852;19.700;2023-05-10T18:17:40;16.40;99.90
21849;DHT22;11089;49.852;19.700;2023-05-10T18:20:41;16.30;99.90
21849;DHT22;11089;49.852;19.700;2023-05-10T18:23:42;16.20;99.90
21849;DHT22;11089;49.852;19.700;2023-05-10T18:26:43;16.30;99.90
21849;DHT22;11089;49.852;19.700;2023-05-10T18:29:44;16.10;99.90
21849;DHT22;11089;49.852;19.700;2023-05-10T18:32:45;15.90;99.90
21849;DHT22;11089;49.852;19.700;2023-05-10T18:35:46;15.90;99.90
21849;DHT22;11089;49.852;19.700;2023-05-10T18:38:47;15.80;99.90
21849;DHT22;11089;49.852;19.700;2023-05-10T18:41:49;15.50;99.90
21849;DHT22;11089;49.852;19.700;2023-05-10T18:44:50;15.60;99.90
21849;DHT22;11089;49.852;19.700;2023-05-10T18:47:51;15.50;99.90
21849;DHT22;11089;49.852;19.700;2023-05-10T18:50:52;15.50;99.90
21849;DHT22;11089;49.852;19.700;2023-05-10T18:53:53;15.50;99.90
21849;DHT22;11089;49.852;19.700;2023-05-10T18:56:54;15.30;99.90
21849;DHT22;11089;49.852;19.700;2023-05-10T18:59:56;15.20;99.90
21849;DHT22;11089;49.852;19.700;2023-05-10T19:02:57;15.10;99.90
21849;DHT22;11089;49.852;19.700;2023-05-10T19:05:58;15.00;99.90
21849;DHT22;11089;49.852;19.700;2023-05-10T19:09:00;15.10;99.90
21849;DHT22;11089;49.852;19.700;2023-05-10T19:12:00;15.10;99.90
21849;DHT22;11089;49.852;19.700;2023-05-10T19:15:02;15.00;99.90
21849;DHT22;11089;49.852;19.700;2023-05-10T19:18:03;14.90;99.90
21849;DHT22;11089;49.852;19.700;2023-05-10T19:21:04;14.90;99.90
21849;DHT22;11089;49.852;19.700;2023-05-10T19:24:07;14.80;99.90
21849;DHT22;11089;49.852;19.700;2023-05-10T19:27:08;14.80;99.90
21849;DHT22;11089;49.852;19.700;2023-05-10T19:30:09;14.70;99.90